Time;durP1;ratioP1;P1;durP2;ratioP2;P2;SDS_P1;SDS_P2;PMS_P1;PMS_P2;Temp;Humidity;BMP_temperature;BMP_pressure;BME280_temperature;BME280_humidity;BME280_pressure;Samples;Min_cycle;Max_cycle;Signal;HPM_P1;HPM_P2
2022/06/23 00:01:18;;;;;;;5.65;3.22;;;;;;;20.73;43.23;99604.44;5012908;28;20050;-61
2022/06/23 00:03:48;;;;;;;8.27;3.75;;;;;;;20.71;43.16;99603.78;4995270;28;20481;-61
2022/06/23 00:06:41;;;;;;;6.68;3.70;;;;;;;20.62;42.91;99602.88;5012589;28;20104;-60
2022/06/23 00:09:39;;;;;;;7.43;3.70;;;;;;;20.58;43.27;99606.84;4995079;28;20049;-60
2022/06/23 00:12:27;;;;;;;5.82;3.67;;;;;;;20.51;43.42;99593.25;5012473;28;20499;-60
2022/06/23 00:15:12;;;;;;;8.10;3.58;;;;;;;20.51;43.82;99595.09;5011635;28;20050;-63
2022/06/23 00:18:09;;;;;;;8.50;3.38;;;;;;;20.47;44.00;99607.09;5012293;28;20112;-61
2022/06/23 00:20:59;;;;;;;7.40;3.92;;;;;;;20.37;43.67;99604.53;5010611;28;20116;-60
2022/06/23 00:23:33;;;;;;;8.05;3.95;;;;;;;20.37;44.56;99596.50;5012412;28;20460;-60
2022/06/23 00:26:26;;;;;;;9.50;3.85;;;;;;;20.29;43.98;99599.94;5012541;28;20560;-60
2022/06/23 00:29:15;;;;;;;5.78;3.25;;;;;;;20.29;45.21;99597.25;5012150;28;20045;-62
2022/06/23 00:31:52;;;;;;;6.07;3.72;;;;;;;20.27;45.27;99601.94;5012769;28;20056;-59
2022/06/23 00:34:24;;;;;;;6.18;3.75;;;;;;;20.23;45.40;99593.41;4994757;28;20115;-60
2022/06/23 00:36:54;;;;;;;7.88;3.65;;;;;;;20.22;45.14;99593.56;5011946;28;20481;-62
2022/06/23 00:39:40;;;;;;;7.82;3.72;;;;;;;20.17;45.48;99591.34;4994527;28;20046;-60
2022/06/23 00:42:21;;;;;;;9.80;4.03;;;;;;;20.13;45.32;99590.81;4994782;28;20092;-60
2022/06/23 00:44:59;;;;;;;7.07;4.05;;;;;;;20.10;45.28;99598.28;5011834;28;20085;-60
2022/06/23 00:47:53;;;;;;;5.57;3.58;;;;;;;20.04;45.36;99591.75;5011824;28;20494;-61
2022/06/23 00:50:29;;;;;;;6.28;3.75;;;;;;;20.06;45.39;99592.41;5011351;28;20092;-59
2022/06/23 00:53:11;;;;;;;5.57;3.80;;;;;;;20.02;46.02;99593.72;5011841;28;20116;-61
2022/06/23 00:56:20;;;;;;;6.78;3.60;;;;;;;19.98;45.31;99597.66;5011864;28;20490;-61
2022/06/23 00:59:00;;;;;;;6.75;3.53;;;;;;;19.98;46.30;99597.66;4991495;28;20510;-61
2022/06/23 01:01:42;;;;;;;7.88;3.80;;;;;;;19.94;46.08;99599.78;4994317;28;20062;-63
2022/06/23 01:04:23;;;;;;;5.85;3.60;;;;;;;19.91;46.56;99600.09;5011676;28;20049;-60
2022/06/23 01:07:02;;;;;;;7.28;3.92;;;;;;;19.88;46.39;99595.88;5011437;28;20076;-60
2022/06/23 01:09:39;;;;;;;8.38;4.30;;;;;;;19.87;46.97;99596.03;5011589;28;20193;-61
2022/06/23 01:12:14;;;;;;;5.38;3.65;;;;;;;19.83;46.95;99589.31;5011404;28;20115;-61
2022/06/23 01:15:09;;;;;;;6.65;3.63;;;;;;;19.82;46.71;99593.00;5011273;28;20046;-60
2022/06/23 01:17:50;;;;;;;6.65;3.72;;;;;;;19.78;46.73;99595.13;4980211;28;20085;-59
2022/06/23 01:20:25;;;;;;;7.75;3.72;;;;;;;19.76;47.26;99592.63;5011347;28;20096;-60
2022/06/23 01:22:57;;;;;;;10.93;3.72;;;;;;;19.73;46.17;99600.91;5011231;28;20430;-59
2022/06/23 01:25:29;;;;;;;9.63;4.20;;;;;;;19.69;47.20;99598.72;5011242;28;20115;-62
2022/06/23 01:28:09;;;;;;;9.77;4.63;;;;;;;19.64;46.94;99599.16;4992962;28;20061;-60
2022/06/23 01:30:45;;;;;;;9.82;4.20;;;;;;;19.59;47.18;99591.59;4993758;28;20042;-59
2022/06/23 01:33:36;;;;;;;7.00;4.18;;;;;;;19.52;47.00;99587.84;5011024;28;20042;-61
2022/06/23 01:36:19;;;;;;;6.72;4.20;;;;;;;19.48;47.35;99583.81;5010859;28;20053;-59
2022/06/23 01:39:26;;;;;;;7.63;3.92;;;;;;;19.46;47.09;99591.09;4993488;28;20108;-62
2022/06/23 01:41:57;;;;;;;6.60;3.65;;;;;;;19.46;47.66;99583.09;5011007;28;20053;-60
2022/06/23 01:44:54;;;;;;;5.70;3.80;;;;;;;19.38;47.39;99581.19;4993520;28;20058;-59
2022/06/23 01:47:33;;;;;;;9.60;3.45;;;;;;;19.37;47.87;99572.34;5011082;28;20054;-60
2022/06/23 01:50:15;;;;;;;7.80;3.42;;;;;;;19.35;48.17;99571.66;4993054;28;20050;-60
2022/06/23 01:52:44;;;;;;;7.45;3.63;;;;;;;19.35;47.62;99577.00;5010971;28;20369;-60
2022/06/23 01:55:23;;;;;;;5.78;4.10;;;;;;;19.30;48.45;99573.94;5010934;28;20080;-60
2022/06/23 01:57:58;;;;;;;5.07;3.40;;;;;;;19.29;48.68;99566.06;4993329;28;20049;-60
2022/06/23 02:00:25;;;;;;;6.95;3.50;;;;;;;19.27;47.89;99563.56;5010630;28;20065;-60
2022/06/23 02:02:56;;;;;;;5.95;3.42;;;;;;;19.24;48.00;99567.38;5010770;28;20046;-60
2022/06/23 02:05:34;;;;;;;4.55;3.15;;;;;;;19.19;49.14;99566.97;5010619;28;20498;-62
2022/06/23 02:08:27;;;;;;;5.60;3.85;;;;;;;19.14;49.13;99564.75;4993546;28;20046;-60
2022/06/23 02:11:00;;;;;;;7.65;3.70;;;;;;;19.12;48.86;99571.22;5010169;28;20058;-59
2022/06/23 02:13:32;;;;;;;7.45;3.67;;;;;;;19.10;48.94;99563.34;5011152;28;20054;-60
2022/06/23 02:16:09;;;;;;;6.88;3.58;;;;;;;19.04;49.00;99563.94;5010738;28;20057;-60
2022/06/23 02:18:52;;;;;;;6.78;3.55;;;;;;;18.98;48.83;99557.34;5010559;28;20069;-60
2022/06/23 02:21:48;;;;;;;6.90;3.30;;;;;;;18.93;48.87;99561.44;4993211;28;20290;-60
2022/06/23 02:24:18;;;;;;;5.82;3.33;;;;;;;18.92;49.37;99559.75;5010637;28;20574;-60
2022/06/23 02:27:05;;;;;;;9.48;3.72;;;;;;;18.84;49.60;99566.66;5010544;28;20050;-62
2022/06/23 02:29:43;;;;;;;7.82;3.53;;;;;;;18.79;49.51;99568.94;5010691;28;20103;-59
2022/06/23 02:32:16;;;;;;;6.10;3.45;;;;;;;18.77;49.62;99565.59;5010804;28;20112;-60
2022/06/23 02:35:09;;;;;;;6.85;3.72;;;;;;;18.69;49.46;99566.28;4993177;28;20108;-59
2022/06/23 02:37:55;;;;;;;6.93;3.67;;;;;;;18.66;50.09;99571.09;4982131;28;20050;-60
2022/06/23 02:40:29;;;;;;;5.88;3.20;;;;;;;18.62;50.10;99574.03;5014037;28;20461;-60
2022/06/23 02:43:31;;;;;;;9.15;3.55;;;;;;;18.52;49.92;99573.22;4996931;28;20053;-60
2022/06/23 02:46:11;;;;;;;5.18;3.53;;;;;;;18.48;49.90;99575.34;4996493;28;20050;-60
2022/06/23 02:49:09;;;;;;;12.77;3.55;;;;;;;18.41;50.14;99574.22;5013766;28;20490;-60
2022/06/23 02:52:00;;;;;;;10.85;4.13;;;;;;;18.38;50.27;99573.69;5014154;28;20131;-61
2022/06/23 02:54:36;;;;;;;5.38;3.45;;;;;;;18.37;50.57;99570.16;5014161;28;20441;-60
2022/06/23 02:57:11;;;;;;;8.18;3.60;;;;;;;18.33;50.79;99584.75;4996559;28;20104;-60
2022/06/23 02:59:40;;;;;;;5.53;3.13;;;;;;;18.34;49.90;99578.44;5013893;28;20041;-59
2022/06/23 03:02:14;;;;;;;10.10;4.03;;;;;;;18.28;51.17;99571.84;4996413;28;20054;-60
2022/06/23 03:04:46;;;;;;;5.82;3.72;;;;;;;18.26;50.89;99570.31;5013786;28;20053;-62
2022/06/23 03:07:45;;;;;;;5.00;3.50;;;;;;;18.19;50.56;99578.03;5013869;28;20045;-60
2022/06/23 03:10:29;;;;;;;6.00;3.70;;;;;;;18.18;51.40;99573.69;4980411;28;20469;-61
2022/06/23 03:13:10;;;;;;;5.57;3.45;;;;;;;18.14;51.38;99573.16;5013731;28;20630;-60
2022/06/23 03:16:10;;;;;;;6.38;3.53;;;;;;;18.11;51.50;99570.75;5013731;28;20050;-61
2022/06/23 03:19:15;;;;;;;7.28;3.30;;;;;;;18.09;51.70;99573.56;5013685;28;20330;-59
2022/06/23 03:21:45;;;;;;;8.43;3.83;;;;;;;18.10;51.02;99577.91;4987780;28;20058;-59
2022/06/23 03:24:35;;;;;;;6.28;3.85;;;;;;;18.04;51.50;99581.09;5013482;28;20050;-60
2022/06/23 03:27:13;;;;;;;15.18;4.45;;;;;;;18.05;51.90;99585.44;5013634;28;20054;-59
2022/06/23 03:29:55;;;;;;;6.30;3.78;;;;;;;18.01;52.34;99578.72;5013359;28;20061;-60
2022/06/23 03:32:42;;;;;;;7.53;3.88;;;;;;;18.01;52.05;99570.72;5013192;28;20112;-59
2022/06/23 03:35:34;;;;;;;4.95;3.60;;;;;;;17.99;51.75;99564.72;4995931;28;20065;-60
2022/06/23 03:38:09;;;;;;;10.10;3.83;;;;;;;18.02;52.19;99571.56;4995536;28;20042;-60
2022/06/23 03:43:54;;;;;;;5.00;3.00;;;;;;;17.98;52.09;99566.53;5013211;28;20544;-60
2022/06/23 03:46:29;;;;;;;7.22;3.75;;;;;;;18.00;52.92;99574.38;5013012;28;20058;-61
2022/06/23 03:49:03;;;;;;;7.63;3.78;;;;;;;18.02;51.91;99560.91;4995329;28;20594;-61
2022/06/23 03:51:50;;;;;;;7.13;3.58;;;;;;;18.00;53.11;99574.38;4994878;28;20062;-60
2022/06/23 03:54:22;;;;;;;7.88;3.60;;;;;;;18.05;52.96;99581.94;5012856;28;20498;-63
2022/06/23 03:56:56;;;;;;;5.97;3.90;;;;;;;18.07;53.29;99572.00;4995276;28;20457;-59
2022/06/23 03:59:36;;;;;;;6.18;3.88;;;;;;;18.07;53.74;99570.19;4995060;28;20104;-60
2022/06/23 04:02:12;;;;;;;4.65;3.53;;;;;;;18.14;52.93;99574.97;4995317;28;20576;-59
2022/06/23 04:04:50;;;;;;;9.40;3.50;;;;;;;18.13;53.33;99579.44;5012928;28;20049;-59
2022/06/23 04:07:34;;;;;;;7.00;3.63;;;;;;;18.17;53.24;99575.50;5012737;28;20079;-60
2022/06/23 04:10:11;;;;;;;7.38;3.83;;;;;;;18.22;53.43;99575.94;5012369;28;20104;-59
2022/06/23 04:13:13;;;;;;;9.20;3.92;;;;;;;18.26;53.44;99564.97;4998359;28;20077;-59
2022/06/23 04:15:41;;;;;;;6.78;3.58;;;;;;;18.31;52.46;99574.22;4995068;28;20058;-62
2022/06/23 04:18:16;;;;;;;4.63;3.60;;;;;;;18.32;53.21;99575.91;4994628;28;20050;-59
2022/06/23 04:20:49;;;;;;;8.70;4.45;;;;;;;18.36;53.19;99573.81;4995252;28;20062;-60
2022/06/23 04:23:20;;;;;;;6.07;3.55;;;;;;;18.40;52.47;99569.03;5012783;28;20050;-60
2022/06/23 04:25:57;;;;;;;4.45;3.70;;;;;;;18.41;53.41;99568.03;5012515;28;20486;-59
2022/06/23 04:28:41;;;;;;;7.35;3.88;;;;;;;18.47;52.92;99567.50;5011993;28;20112;-60
2022/06/23 04:31:08;;;;;;;;;;;;;;;18.49;51.06;99562.84;5012581;28;20479;-59
2022/06/23 04:33:39;;;;;;;6.57;4.00;;;;;;;18.55;52.84;99564.94;4994755;28;19928;-60
2022/06/23 04:36:19;;;;;;;8.57;4.05;;;;;;;18.55;53.33;99570.28;5012358;28;20045;-60
2022/06/23 04:38:58;;;;;;;7.95;4.00;;;;;;;18.55;53.45;99564.94;5011701;28;20049;-61
2022/06/23 04:41:37;;;;;;;5.53;4.15;;;;;;;18.60;53.33;99572.50;4994363;28;20061;-60
2022/06/23 04:44:14;;;;;;;6.57;4.20;;;;;;;18.65;52.99;99566.75;5012193;28;20101;-60
2022/06/23 04:47:05;;;;;;;7.38;3.97;;;;;;;18.65;53.29;99566.75;4994572;28;20092;-62
2022/06/23 04:49:50;;;;;;;7.40;3.92;;;;;;;18.70;52.93;99567.13;5000360;28;20065;-60
2022/06/23 04:52:35;;;;;;;9.73;4.70;;;;;;;18.74;53.18;99561.38;5012259;28;20111;-59
2022/06/23 04:55:14;;;;;;;6.95;3.85;;;;;;;18.80;53.21;99570.59;5011843;28;20046;-59
2022/06/23 04:58:21;;;;;;;6.63;4.30;;;;;;;18.85;52.46;99572.84;4994192;28;20120;-60
2022/06/23 05:00:50;;;;;;;6.95;4.15;;;;;;;18.95;52.77;99567.47;4993000;28;20057;-68
2022/06/23 05:03:23;;;;;;;6.20;4.10;;;;;;;18.98;53.04;99578.69;5011484;28;20494;-68
2022/06/23 05:05:57;;;;;;;;;;;;;;;19.03;51.13;99572.94;4994610;28;20136;-63
2022/06/23 05:08:26;;;;;;;;;;;;;;;19.12;50.38;99576.53;5011806;28;19940;-60
2022/06/23 05:11:10;;;;;;;4.75;3.58;;;;;;;19.19;52.14;99576.78;5011520;28;19925;-62
2022/06/23 05:13:50;;;;;;;8.02;4.10;;;;;;;19.20;52.55;99575.78;5011364;28;20054;-60
2022/06/23 05:16:36;;;;;;;5.90;3.88;;;;;;;19.22;52.33;99576.50;4994018;28;20053;-63
2022/06/23 05:19:09;;;;;;;6.55;3.65;;;;;;;19.27;52.87;99576.91;4993563;28;20050;-60
2022/06/23 05:21:43;;;;;;;7.30;4.18;;;;;;;19.31;52.88;99580.94;5011308;28;20555;-61
2022/06/23 05:24:15;;;;;;;8.27;4.00;;;;;;;19.37;52.59;99574.19;5011265;28;20054;-61
2022/06/23 05:26:51;;;;;;;9.13;4.00;;;;;;;19.43;52.38;99567.41;5011241;28;20100;-60
2022/06/23 05:29:23;;;;;;;6.10;3.88;;;;;;;19.51;52.50;99570.16;4993369;28;20089;-60
2022/06/23 05:31:54;;;;;;;7.20;4.07;;;;;;;19.58;52.19;99573.91;4993857;28;20104;-61
2022/06/23 05:34:27;;;;;;;7.47;3.92;;;;;;;19.64;52.66;99567.97;4993897;28;20550;-61
2022/06/23 05:37:12;;;;;;;5.95;4.05;;;;;;;19.70;52.25;99565.69;4993635;28;20050;-60
2022/06/23 05:39:39;;;;;;;6.47;3.70;;;;;;;19.81;51.84;99562.75;4993169;28;20552;-60
2022/06/23 05:42:16;;;;;;;6.47;3.67;;;;;;;19.87;52.22;99570.19;5011245;28;20564;-62
2022/06/23 05:45:08;;;;;;;7.43;4.28;;;;;;;19.94;52.05;99570.41;5010895;28;20052;-60
2022/06/23 05:47:38;;;;;;;7.82;3.95;;;;;;;20.04;52.12;99578.38;5010934;28;20104;-61
2022/06/23 05:50:12;;;;;;;5.65;3.80;;;;;;;20.11;51.77;99576.75;5010572;28;20050;-60
2022/06/23 05:52:46;;;;;;;4.50;3.30;;;;;;;20.19;51.68;99573.31;5011055;28;20050;-60
2022/06/23 05:55:19;;;;;;;6.95;4.05;;;;;;;20.28;51.65;99579.56;5010923;28;20057;-60
2022/06/23 05:57:59;;;;;;;5.70;3.75;;;;;;;20.34;51.46;99570.94;5010885;28;20050;-60
2022/06/23 06:00:31;;;;;;;6.55;3.67;;;;;;;20.45;51.66;99577.88;4992994;28;20096;-61
2022/06/23 06:03:06;;;;;;;8.80;3.67;;;;;;;20.56;51.02;99580.25;5011123;28;20485;-61
2022/06/23 06:05:36;;;;;;;7.82;2.97;;;;;;;20.64;50.94;99568.75;4993508;28;20054;-60
2022/06/23 06:08:11;;;;;;;5.43;3.35;;;;;;;20.74;51.15;99573.19;5010540;28;20049;-61
2022/06/23 06:10:38;;;;;;;6.95;3.60;;;;;;;20.85;50.57;99572.91;5011035;28;20095;-60
2022/06/23 06:13:14;;;;;;;5.60;3.10;;;;;;;20.90;50.56;99567.94;5011546;28;20046;-60
2022/06/23 06:15:46;;;;;;;8.02;3.30;;;;;;;21.01;50.41;99576.69;5014835;28;20119;-60
2022/06/23 06:18:28;;;;;;;6.50;3.55;;;;;;;21.07;50.13;99566.19;5014725;28;20050;-60
2022/06/23 06:20:58;;;;;;;6.30;3.08;;;;;;;21.19;49.93;99566.72;5014667;28;20057;-59
2022/06/23 06:23:43;;;;;;;4.07;3.20;;;;;;;21.26;49.76;99563.41;5014388;28;20050;-61
2022/06/23 06:26:12;;;;;;;6.30;3.15;;;;;;;21.35;49.79;99563.25;5014667;28;20046;-60
2022/06/23 06:28:39;;;;;;;8.32;3.35;;;;;;;21.45;49.36;99568.47;4996941;28;20541;-60
2022/06/23 06:31:28;;;;;;;5.05;3.05;;;;;;;21.53;49.30;99569.50;5014306;28;20054;-60
2022/06/23 06:34:05;;;;;;;6.45;3.10;;;;;;;21.63;49.11;99570.19;5014232;28;20481;-61
2022/06/23 06:36:41;;;;;;;5.22;2.83;;;;;;;21.72;48.84;99579.94;4997092;28;20112;-60
2022/06/23 06:39:07;;;;;;;4.15;2.70;;;;;;;21.83;48.91;99580.66;4996393;28;20058;-60
2022/06/23 06:41:35;;;;;;;6.55;3.22;;;;;;;21.91;49.04;99575.31;5014002;28;20073;-60
2022/06/23 06:44:02;;;;;;;4.20;2.75;;;;;;;22.02;48.74;99579.50;4996788;28;20521;-60
2022/06/23 06:46:30;;;;;;;3.05;2.47;;;;;;;22.11;48.70;99574.97;5014123;28;20104;-64
2022/06/23 06:48:59;;;;;;;3.88;2.50;;;;;;;22.20;48.80;99571.25;5014034;28;20069;-62
2022/06/23 06:51:27;;;;;;;4.35;2.78;;;;;;;22.29;48.65;99572.09;5013992;28;20501;-61
2022/06/23 06:54:06;;;;;;;5.50;2.92;;;;;;;22.38;48.55;99576.47;4980552;28;20092;-62
2022/06/23 06:56:40;;;;;;;6.43;2.60;;;;;;;22.48;48.41;99578.97;5013853;28;20461;-63
2022/06/23 06:59:52;;;;;;;4.80;2.83;;;;;;;22.57;47.53;99581.66;5013974;28;21305;-61
2022/06/23 07:02:24;;;;;;;3.08;2.45;;;;;;;22.71;47.59;99583.63;5013839;28;20441;-62
2022/06/23 07:05:26;;;;;;;3.80;2.30;;;;;;;22.79;47.37;99580.09;4996544;28;20050;-60
2022/06/23 07:08:22;;;;;;;3.65;2.28;;;;;;;22.91;47.63;99573.34;5013571;28;20061;-60
2022/06/23 07:11:01;;;;;;;24.33;3.15;;;;;;;23.07;47.56;99568.94;5013736;28;20104;-63
2022/06/23 07:13:48;;;;;;;2.40;1.98;;;;;;;23.15;47.02;99568.06;5013663;28;20107;-60
2022/06/23 07:16:42;;;;;;;3.78;2.63;;;;;;;23.26;47.15;99569.50;5013862;28;20053;-59
2022/06/23 07:19:25;;;;;;;2.97;2.30;;;;;;;23.37;46.90;99571.84;5013302;28;20128;-59
2022/06/23 07:21:56;;;;;;;4.30;2.08;;;;;;;23.50;46.66;99571.25;5013276;28;20053;-60
2022/06/23 07:24:32;;;;;;;4.38;2.25;;;;;;;23.58;46.70;99569.56;5013121;28;20054;-62
2022/06/23 07:27:17;;;;;;;4.82;2.20;;;;;;;23.66;46.17;99564.13;5013355;28;20641;-60
2022/06/23 07:30:04;;;;;;;4.88;2.30;;;;;;;23.77;46.41;99568.25;5013094;28;20193;-60
2022/06/23 07:32:47;;;;;;;4.90;2.00;;;;;;;23.88;46.14;99570.50;5013456;28;20390;-61
2022/06/23 07:35:27;;;;;;;5.55;1.90;;;;;;;23.99;45.88;99571.94;5013390;28;20050;-61
2022/06/23 07:38:06;;;;;;;4.43;1.88;;;;;;;24.11;45.71;99568.84;5013105;28;20054;-61
2022/06/23 07:40:56;;;;;;;8.05;2.28;;;;;;;24.22;45.53;99567.59;4995502;28;20045;-61
2022/06/23 07:43:27;;;;;;;3.67;1.90;;;;;;;24.36;45.44;99561.38;5013133;28;20046;-60
2022/06/23 07:46:01;;;;;;;4.93;1.63;;;;;;;24.45;44.30;99565.66;4995659;28;20104;-60
2022/06/23 07:48:31;;;;;;;3.85;1.88;;;;;;;24.57;44.77;99566.06;5013042;28;20108;-60
2022/06/23 07:51:00;;;;;;;3.13;1.90;;;;;;;24.69;44.73;99565.59;5012841;28;20721;-60
2022/06/23 07:53:34;;;;;;;5.78;2.00;;;;;;;24.79;44.02;99571.56;4995530;28;20049;-60
2022/06/23 07:56:04;;;;;;;2.15;1.70;;;;;;;24.92;44.26;99562.84;4995541;28;20082;-61
2022/06/23 07:58:34;;;;;;;4.30;1.60;;;;;;;25.04;44.29;99562.38;5012576;28;20418;-60
2022/06/23 08:01:11;;;;;;;3.30;1.73;;;;;;;25.14;44.36;99567.44;4995681;28;20058;-61
2022/06/23 08:03:55;;;;;;;3.65;1.80;;;;;;;25.26;43.98;99563.25;4995404;28;20475;-61
2022/06/23 08:06:24;;;;;;;4.97;1.90;;;;;;;25.44;43.98;99564.69;4995459;28;20406;-60
2022/06/23 08:08:57;;;;;;;5.50;2.13;;;;;;;25.56;43.81;99554.28;5012312;28;20119;-61
2022/06/23 08:14:40;;;;;;;2.58;1.40;;;;;;;25.89;42.93;99565.41;5012730;28;20556;-61
2022/06/23 08:17:13;;;;;;;3.58;1.63;;;;;;;26.03;41.65;99562.84;4995501;28;20153;-61
2022/06/23 08:19:55;;;;;;;4.45;1.40;;;;;;;26.17;41.37;99562.94;5012358;28;20053;-61
2022/06/23 08:22:28;;;;;;;7.90;1.77;;;;;;;26.30;41.68;99557.69;5012297;28;20497;-61
2022/06/23 08:25:03;;;;;;;2.53;1.60;;;;;;;26.44;41.43;99560.47;4995412;28;20077;-60
2022/06/23 08:27:52;;;;;;;4.40;1.70;;;;;;;26.57;41.47;99552.47;4997448;28;20081;-61
2022/06/23 08:30:20;;;;;;;;;;;;;;;26.65;42.33;99555.00;4995361;28;20057;-61
2022/06/23 08:32:50;;;;;;;2.60;1.40;;;;;;;26.83;41.03;99550.13;5012222;28;19975;-61
2022/06/23 08:35:22;;;;;;;2.00;1.70;;;;;;;26.91;40.26;99549.97;5011816;28;20403;-62
2022/06/23 08:38:09;;;;;;;3.10;1.40;;;;;;;26.98;40.24;99550.84;5012196;28;20050;-60
2022/06/23 08:41:01;;;;;;;6.47;1.42;;;;;;;27.13;40.04;99548.00;5011939;28;20045;-60
2022/06/23 08:44:01;;;;;;;4.45;1.50;;;;;;;27.24;39.60;99529.53;5012201;28;20132;-60
2022/06/23 08:46:27;;;;;;;5.10;1.92;;;;;;;27.37;39.69;99531.44;5012168;28;20080;-61
2022/06/23 08:49:16;;;;;;;3.25;1.58;;;;;;;27.44;40.08;99535.81;5011483;28;20045;-60
2022/06/23 08:52:17;;;;;;;2.83;1.27;;;;;;;27.56;39.26;99536.06;5012047;28;20050;-61
2022/06/23 08:55:15;;;;;;;4.75;1.23;;;;;;;27.71;39.27;99529.66;4994531;28;20053;-62
2022/06/23 08:58:27;;;;;;;3.53;1.50;;;;;;;27.88;39.13;99530.09;4997477;28;20100;-64
2022/06/23 09:01:07;;;;;;;3.28;1.42;;;;;;;28.02;39.26;99530.09;4994240;28;20053;-61
2022/06/23 09:03:49;;;;;;;2.25;1.25;;;;;;;28.15;39.15;99530.09;4994452;28;20053;-61
2022/06/23 09:06:32;;;;;;;2.95;1.40;;;;;;;28.28;38.64;99529.28;5011698;28;20061;-61
2022/06/23 09:09:36;;;;;;;2.88;1.52;;;;;;;28.42;39.34;99534.66;5011368;28;20640;-60
2022/06/23 09:12:16;;;;;;;3.60;2.03;;;;;;;28.55;38.05;99528.41;5011704;28;20049;-61
2022/06/23 09:15:20;;;;;;;3.63;1.50;;;;;;;28.64;38.23;99537.97;4993962;28;20061;-60
2022/06/23 09:18:20;;;;;;;4.90;1.88;;;;;;;28.74;37.74;99519.38;5011863;28;20050;-60
2022/06/23 09:20:59;;;;;;;4.82;1.33;;;;;;;28.90;37.85;99524.56;4993782;28;20104;-61
2022/06/23 09:23:59;;;;;;;3.63;1.90;;;;;;;28.97;37.35;99537.03;5011732;28;20045;-63
2022/06/23 09:26:36;;;;;;;1.40;1.25;;;;;;;29.08;36.57;99526.56;5011235;28;20450;-63
2022/06/23 09:29:29;;;;;;;4.85;1.40;;;;;;;29.16;37.10;99520.91;4993675;28;20112;-61
2022/06/23 09:32:37;;;;;;;4.20;1.42;;;;;;;29.26;37.52;99520.41;5011303;28;20107;-60
2022/06/23 09:35:34;;;;;;;4.78;1.45;;;;;;;29.36;37.09;99509.94;4981828;28;20085;-61
2022/06/23 09:38:09;;;;;;;2.17;1.50;;;;;;;29.47;35.86;99503.00;5011148;28;20123;-61
2022/06/23 09:41:11;;;;;;;3.20;1.52;;;;;;;29.54;36.53;99510.28;4993529;28;20058;-60
2022/06/23 09:44:04;;;;;;;3.08;1.40;;;;;;;29.63;37.17;99511.66;5011119;28;20054;-61
2022/06/23 09:46:53;;;;;;;2.90;1.48;;;;;;;29.72;37.57;99514.94;5011086;28;20053;-63
2022/06/23 09:49:46;;;;;;;3.22;1.40;;;;;;;29.85;35.33;99519.44;4992975;28;20057;-60
2022/06/23 09:52:41;;;;;;;1.55;1.30;;;;;;;29.93;36.41;99512.91;5002772;28;20045;-61
2022/06/23 09:55:22;;;;;;;1.60;1.25;;;;;;;30.04;36.17;99512.19;5010958;28;20552;-61
2022/06/23 09:58:07;;;;;;;3.80;1.42;;;;;;;30.17;35.72;99503.94;5010884;28;20096;-62
2022/06/23 10:00:46;;;;;;;2.33;1.40;;;;;;;30.28;35.86;99507.00;5011098;28;20046;-60
2022/06/23 10:03:30;;;;;;;2.47;1.40;;;;;;;30.36;36.21;99500.44;5010838;28;20104;-60
2022/06/23 10:06:14;;;;;;;5.03;1.50;;;;;;;30.50;35.37;99501.13;5010862;28;20066;-60
2022/06/23 10:08:56;;;;;;;3.65;1.17;;;;;;;30.59;35.33;99498.91;5010607;28;20116;-61
2022/06/23 10:11:49;;;;;;;2.40;1.33;;;;;;;30.67;34.56;99491.31;4993495;28;20077;-61
2022/06/23 10:14:30;;;;;;;4.88;2.05;;;;;;;30.79;34.50;99490.56;5010869;28;20054;-62
2022/06/23 10:17:19;;;;;;;1.25;1.15;;;;;;;30.89;33.49;99496.28;5010686;28;20053;-61
2022/06/23 10:20:02;;;;;;;2.40;1.10;;;;;;;30.99;33.75;99490.31;5010529;28;20058;-62
2022/06/23 10:22:46;;;;;;;5.97;1.30;;;;;;;31.11;33.61;99497.69;5010569;28;20052;-61
2022/06/23 10:25:18;;;;;;;2.47;1.20;;;;;;;31.21;33.04;99487.09;4992869;28;20383;-61
2022/06/23 10:28:17;;;;;;;7.88;1.73;;;;;;;31.29;34.52;99494.91;5010539;28;20046;-61
2022/06/23 10:30:59;;;;;;;1.35;1.02;;;;;;;31.42;34.47;99493.06;5010393;28;20054;-62
2022/06/23 10:33:45;;;;;;;4.93;1.70;;;;;;;31.55;33.27;99483.91;5010456;28;20132;-62
2022/06/23 10:36:12;;;;;;;1.35;1.25;;;;;;;31.68;32.66;99488.28;5010638;28;20062;-62
2022/06/23 10:38:58;;;;;;;2.15;1.30;;;;;;;31.77;33.54;99488.78;5010238;28;20050;-62
2022/06/23 10:41:54;;;;;;;4.00;1.30;;;;;;;31.93;32.66;99484.56;5010319;28;20042;-61
2022/06/23 10:44:39;;;;;;;1.67;1.25;;;;;;;32.19;32.29;99474.25;5010721;28;20062;-60
2022/06/23 10:47:36;;;;;;;3.13;1.23;;;;;;;32.42;31.97;99465.22;5010634;28;20437;-62
2022/06/23 10:50:30;;;;;;;2.85;1.05;;;;;;;32.81;30.82;99469.28;5010201;28;20061;-63
2022/06/23 10:53:32;;;;;;;2.25;1.08;;;;;;;33.32;30.59;99458.53;5010662;28;20107;-61
2022/06/23 10:56:21;;;;;;;1.58;1.08;;;;;;;33.85;31.94;99465.66;5010142;28;20057;-62
2022/06/23 10:59:11;;;;;;;2.15;0.95;;;;;;;34.39;31.34;99462.34;5010599;28;20561;-60
2022/06/23 11:01:51;;;;;;;1.98;1.10;;;;;;;35.01;30.07;99450.50;5013743;28;20050;-61
2022/06/23 11:04:33;;;;;;;1.10;1.00;;;;;;;35.58;29.77;99451.84;4996486;28;20108;-63
2022/06/23 11:07:17;;;;;;;2.90;0.98;;;;;;;36.13;28.44;99448.94;5014065;28;20042;-61
2022/06/23 11:09:58;;;;;;;1.45;1.10;;;;;;;36.68;28.47;99456.06;4996361;28;20104;-61
2022/06/23 11:12:25;;;;;;;1.27;0.93;;;;;;;37.16;27.53;99439.44;5013661;28;20042;-63
2022/06/23 11:15:16;;;;;;;2.05;0.90;;;;;;;37.58;27.49;99444.09;5013645;28;20173;-62
2022/06/23 11:18:08;;;;;;;2.10;1.00;;;;;;;38.02;26.14;99440.75;5013455;28;20560;-62
2022/06/23 11:21:04;;;;;;;2.50;1.17;;;;;;;38.40;25.87;99440.38;5013593;28;20193;-61
2022/06/23 11:23:33;;;;;;;1.15;0.82;;;;;;;38.76;24.35;99428.38;5013343;28;20065;-63
2022/06/23 11:26:18;;;;;;;3.25;0.82;;;;;;;39.02;24.98;99435.63;5013720;28;20058;-60
2022/06/23 11:29:06;;;;;;;1.40;1.00;;;;;;;39.28;24.77;99429.97;5013396;28;20058;-63
2022/06/23 11:32:07;;;;;;;1.35;0.98;;;;;;;39.54;25.03;99418.75;5013283;28;20046;-64
2022/06/23 11:35:16;;;;;;;1.02;0.80;;;;;;;39.84;23.87;99427.81;5013343;28;20049;-61
2022/06/23 11:38:07;;;;;;;2.60;1.33;;;;;;;40.11;24.77;99421.72;5000663;28;20054;-62
2022/06/23 11:40:46;;;;;;;0.77;0.70;;;;;;;40.36;22.15;99428.00;5013271;28;20115;-62
2022/06/23 11:43:18;;;;;;;4.03;0.90;;;;;;;40.55;21.57;99419.00;5013262;28;20049;-62
2022/06/23 11:46:04;;;;;;;1.05;0.90;;;;;;;40.69;21.78;99413.53;4996673;28;20133;-62
2022/06/23 11:48:36;;;;;;;1.20;1.10;;;;;;;40.84;20.97;99414.44;5012916;28;20112;-61
2022/06/23 11:51:18;;;;;;;1.10;0.90;;;;;;;40.95;22.26;99415.13;5013137;28;20464;-62
2022/06/23 11:54:28;;;;;;;2.25;0.90;;;;;;;41.08;22.91;99408.00;5013170;28;20085;-62
2022/06/23 11:57:45;;;;;;;1.35;0.93;;;;;;;41.24;21.90;99408.56;4985598;28;20050;-62
2022/06/23 12:00:17;;;;;;;2.08;1.10;;;;;;;41.40;19.91;99398.06;4979612;28;20062;-62
2022/06/23 12:03:29;;;;;;;1.37;0.97;;;;;;;41.41;21.71;99402.50;4998384;28;20065;-63
2022/06/23 12:06:30;;;;;;;0.88;0.85;;;;;;;41.51;21.43;99401.47;5012820;28;20281;-63
2022/06/23 12:09:15;;;;;;;3.03;0.80;;;;;;;41.67;19.91;99397.28;5012370;28;20457;-63
2022/06/23 12:11:42;;;;;;;1.08;0.70;;;;;;;41.79;20.38;99407.06;5012085;28;20077;-63
2022/06/23 12:14:09;;;;;;;0.73;0.70;;;;;;;41.89;19.85;99400.53;5012633;28;20072;-61
2022/06/23 12:16:47;;;;;;;2.22;1.08;;;;;;;41.97;19.02;99399.81;5012671;28;20054;-63
2022/06/23 12:19:17;;;;;;;1.42;0.88;;;;;;;42.13;18.95;99400.28;4994823;28;20108;-63
2022/06/23 12:22:03;;;;;;;1.75;0.70;;;;;;;42.17;20.38;99390.28;5012336;28;20054;-62
2022/06/23 12:24:55;;;;;;;0.93;0.80;;;;;;;42.29;19.65;99394.44;5012818;28;20054;-63
2022/06/23 12:27:39;;;;;;;1.23;0.70;;;;;;;42.41;19.33;99391.16;5012312;28;20502;-63
2022/06/23 12:30:11;;;;;;;2.58;0.80;;;;;;;42.52;17.88;99387.00;5012053;28;20514;-63
2022/06/23 12:32:53;;;;;;;1.45;0.80;;;;;;;42.59;18.03;99383.81;5012547;28;20108;-62
2022/06/23 12:35:59;;;;;;;3.17;0.98;;;;;;;42.64;19.20;99383.72;5012507;28;20124;-63
2022/06/23 12:38:36;;;;;;;0.70;0.57;;;;;;;42.78;17.64;99378.13;5010625;28;20054;-62
2022/06/23 12:41:25;;;;;;;0.93;0.80;;;;;;;42.83;18.51;99375.25;4994737;28;20042;-63
2022/06/23 12:44:06;;;;;;;1.05;0.93;;;;;;;43.00;19.49;99373.72;5012333;28;20131;-62
2022/06/23 12:46:47;;;;;;;2.45;1.08;;;;;;;43.18;18.07;99369.16;5012048;28;20108;-62
2022/06/23 12:50:01;;;;;;;2.72;0.88;;;;;;;43.36;19.13;99369.25;5011974;28;20524;-61